sensor_id;sensor_type;location;lat;lon;timestamp;pressure;altitude;pressure_sealevel;temperature;humidity
39773;BME280;25451;51.960;6.250;2022-09-09T00:00:15;100650.53;;;17.39;72.69
39773;BME280;25451;51.960;6.250;2022-09-09T00:02:53;100659.75;;;17.40;72.87
39773;BME280;25451;51.960;6.250;2022-09-09T00:07:59;100658.13;;;17.34;72.73
39773;BME280;25451;51.960;6.250;2022-09-09T00:10:29;100652.84;;;17.32;72.76
39773;BME280;25451;51.960;6.250;2022-09-09T00:15:30;100643.97;;;17.25;72.66
39773;BME280;25451;51.960;6.250;2022-09-09T00:18:08;100652.03;;;17.27;72.98
39773;BME280;25451;51.960;6.250;2022-09-09T00:20:46;100636.25;;;17.17;72.78
39773;BME280;25451;51.960;6.250;2022-09-09T00:23:30;100650.41;;;17.21;72.98
39773;BME280;25451;51.960;6.250;2022-09-09T00:26:15;100647.94;;;17.19;72.95
39773;BME280;25451;51.960;6.250;2022-09-09T00:28:57;100646.56;;;17.17;72.83
39773;BME280;25451;51.960;6.250;2022-09-09T00:31:28;100638.81;;;17.09;72.85
39773;BME280;25451;51.960;6.250;2022-09-09T00:33:58;100644.09;;;17.10;73.02
39773;BME280;25451;51.960;6.250;2022-09-09T00:36:26;100641.31;;;17.10;72.99
39773;BME280;25451;51.960;6.250;2022-09-09T00:38:57;100649.69;;;17.10;72.97
39773;BME280;25451;51.960;6.250;2022-09-09T00:49:32;100642.78;;;17.03;72.98
39773;BME280;25451;51.960;6.250;2022-09-09T00:55:11;100636.97;;;16.99;73.03
39773;BME280;25451;51.960;6.250;2022-09-09T00:57:41;100636.41;;;16.97;73.12
39773;BME280;25451;51.960;6.250;2022-09-09T01:00:46;100631.72;;;16.93;73.06
39773;BME280;25451;51.960;6.250;2022-09-09T01:11:27;100634.28;;;16.84;73.14
39773;BME280;25451;51.960;6.250;2022-09-09T01:17:15;100626.84;;;16.75;73.08
39773;BME280;25451;51.960;6.250;2022-09-09T01:22:32;100625.16;;;16.74;73.31
39773;BME280;25451;51.960;6.250;2022-09-09T01:27:40;100627.47;;;16.67;73.26
39773;BME280;25451;51.960;6.250;2022-09-09T01:30:10;100626.91;;;16.65;73.24
39773;BME280;25451;51.960;6.250;2022-09-09T01:32:44;100626.94;;;16.59;73.08
39773;BME280;25451;51.960;6.250;2022-09-09T01:35:15;100621.13;;;16.56;73.30
39773;BME280;25451;51.960;6.250;2022-09-09T01:37:46;100626.38;;;16.57;73.30
39773;BME280;25451;51.960;6.250;2022-09-09T01:40:11;100632.56;;;16.54;73.27
39773;BME280;25451;51.960;6.250;2022-09-09T01:42:37;100613.34;;;16.48;73.25
39773;BME280;25451;51.960;6.250;2022-09-09T01:45:03;100624.22;;;16.49;73.28
39773;BME280;25451;51.960;6.250;2022-09-09T01:47:29;100619.22;;;16.41;73.33
39773;BME280;25451;51.960;6.250;2022-09-09T01:49:54;100618.13;;;16.42;73.39
39773;BME280;25451;51.960;6.250;2022-09-09T01:52:19;100626.47;;;16.42;73.32
39773;BME280;25451;51.960;6.250;2022-09-09T01:54:45;100615.34;;;16.37;73.56
39773;BME280;25451;51.960;6.250;2022-09-09T01:59:49;100627.09;;;16.34;73.46
39773;BME280;25451;51.960;6.250;2022-09-09T02:02:26;100626.00;;;16.30;73.45
39773;BME280;25451;51.960;6.250;2022-09-09T02:05:17;100616.81;;;16.25;73.29
39773;BME280;25451;51.960;6.250;2022-09-09T02:07:52;100623.22;;;16.25;73.46
39773;BME280;25451;51.960;6.250;2022-09-09T02:10:25;100617.16;;;16.18;73.51
39773;BME280;25451;51.960;6.250;2022-09-09T02:13:21;100622.13;;;16.21;73.48
39773;BME280;25451;51.960;6.250;2022-09-09T02:15:56;100621.34;;;16.16;73.44
39773;BME280;25451;51.960;6.250;2022-09-09T02:18:34;100617.72;;;16.15;73.35
39773;BME280;25451;51.960;6.250;2022-09-09T02:21:01;100615.78;;;16.11;73.58
39773;BME280;25451;51.960;6.250;2022-09-09T02:23:28;100620.78;;;16.14;73.64
39773;BME280;25451;51.960;6.250;2022-09-09T02:25:55;100617.75;;;16.10;73.48
39773;BME280;25451;51.960;6.250;2022-09-09T02:28:24;100619.44;;;16.06;73.64
39773;BME280;25451;51.960;6.250;2022-09-09T02:30:51;100619.44;;;16.06;73.66
39773;BME280;25451;51.960;6.250;2022-09-09T02:33:23;100622.22;;;16.06;73.57
39773;BME280;25451;51.960;6.250;2022-09-09T02:35:50;100620.84;;;16.04;73.62
39773;BME280;25451;51.960;6.250;2022-09-09T02:38:17;100620.84;;;15.99;73.58
39773;BME280;25451;51.960;6.250;2022-09-09T02:40:42;100613.09;;;15.96;73.68
39773;BME280;25451;51.960;6.250;2022-09-09T02:43:07;100622.81;;;15.98;73.78
39773;BME280;25451;51.960;6.250;2022-09-09T02:45:42;100619.50;;;15.96;73.40
39773;BME280;25451;51.960;6.250;2022-09-09T02:51:19;100621.19;;;15.87;73.79
39773;BME280;25451;51.960;6.250;2022-09-09T02:56:51;100622.59;;;15.85;73.91
39773;BME280;25451;51.960;6.250;2022-09-09T02:59:18;100610.06;;;15.82;73.96
39773;BME280;25451;51.960;6.250;2022-09-09T03:01:43;100604.25;;;15.78;73.94
39773;BME280;25451;51.960;6.250;2022-09-09T03:04:09;100612.88;;;15.77;74.05
39773;BME280;25451;51.960;6.250;2022-09-09T03:06:34;100611.19;;;15.76;74.04
39773;BME280;25451;51.960;6.250;2022-09-09T03:09:00;100617.63;;;15.71;73.96
39773;BME280;25451;51.960;6.250;2022-09-09T03:11:27;100615.13;;;15.70;74.23
39773;BME280;25451;51.960;6.250;2022-09-09T03:13:53;100619.88;;;15.69;74.17
39773;BME280;25451;51.960;6.250;2022-09-09T03:16:19;100614.03;;;15.66;74.23
39773;BME280;25451;51.960;6.250;2022-09-09T03:18:46;100611.53;;;15.64;74.27
39773;BME280;25451;51.960;6.250;2022-09-09T03:21:11;100613.47;;;15.64;74.35
39773;BME280;25451;51.960;6.250;2022-09-09T03:23:37;100615.16;;;15.60;74.30
39773;BME280;25451;51.960;6.250;2022-09-09T03:26:02;100624.88;;;15.62;74.45
39773;BME280;25451;51.960;6.250;2022-09-09T03:28:27;100611.81;;;15.58;74.46
39773;BME280;25451;51.960;6.250;2022-09-09T03:31:05;100615.44;;;15.58;74.38
39773;BME280;25451;51.960;6.250;2022-09-09T03:33:31;100613.25;;;15.55;74.27
39773;BME280;25451;51.960;6.250;2022-09-09T03:35:57;100617.38;;;15.58;74.39
39773;BME280;25451;51.960;6.250;2022-09-09T03:38:25;100611.84;;;15.53;74.29
39773;BME280;25451;51.960;6.250;2022-09-09T03:40:52;100624.06;;;15.52;74.32
39773;BME280;25451;51.960;6.250;2022-09-09T03:43:21;100620.75;;;15.50;74.28
39773;BME280;25451;51.960;6.250;2022-09-09T03:45:47;100620.75;;;15.50;74.48
39773;BME280;25451;51.960;6.250;2022-09-09T03:48:13;100620.19;;;15.53;74.40
39773;BME280;25451;51.960;6.250;2022-09-09T03:50:39;100622.44;;;15.51;74.26
39773;BME280;25451;51.960;6.250;2022-09-09T03:53:04;100607.41;;;15.47;74.38
39773;BME280;25451;51.960;6.250;2022-09-09T03:55:31;100626.06;;;15.51;73.98
39773;BME280;25451;51.960;6.250;2022-09-09T03:57:57;100621.31;;;15.47;74.37
39773;BME280;25451;51.960;6.250;2022-09-09T04:00:22;100616.31;;;15.49;74.43
39773;BME280;25451;51.960;6.250;2022-09-09T04:02:48;100602.94;;;15.41;74.36
39773;BME280;25451;51.960;6.250;2022-09-09T04:05:14;100608.25;;;15.42;74.41
39773;BME280;25451;51.960;6.250;2022-09-09T04:07:40;100597.97;;;15.43;74.47
39773;BME280;25451;51.960;6.250;2022-09-09T04:10:06;100600.16;;;15.41;74.53
39773;BME280;25451;51.960;6.250;2022-09-09T04:12:32;100611.28;;;15.46;74.51
39773;BME280;25451;51.960;6.250;2022-09-09T04:15:00;100614.06;;;15.46;74.49
39773;BME280;25451;51.960;6.250;2022-09-09T04:17:27;100609.09;;;15.43;74.52
39773;BME280;25451;51.960;6.250;2022-09-09T04:19:52;100606.53;;;15.41;74.49
39773;BME280;25451;51.960;6.250;2022-09-09T04:22:18;100605.72;;;15.41;74.58
39773;BME280;25451;51.960;6.250;2022-09-09T04:24:43;100613.28;;;15.45;74.67
39773;BME280;25451;51.960;6.250;2022-09-09T04:27:08;100604.34;;;15.43;74.44
39773;BME280;25451;51.960;6.250;2022-09-09T04:29:34;100599.38;;;15.45;74.51
39773;BME280;25451;51.960;6.250;2022-09-09T04:31:59;100599.63;;;15.44;74.62
39773;BME280;25451;51.960;6.250;2022-09-09T04:34:25;100600.19;;;15.46;74.52
39773;BME280;25451;51.960;6.250;2022-09-09T04:36:50;100594.06;;;15.44;74.64
39773;BME280;25451;51.960;6.250;2022-09-09T04:39:17;100589.34;;;15.44;74.67
39773;BME280;25451;51.960;6.250;2022-09-09T04:41:42;100588.25;;;15.45;74.76
39773;BME280;25451;51.960;6.250;2022-09-09T04:44:08;100590.19;;;15.45;74.79
39773;BME280;25451;51.960;6.250;2022-09-09T04:46:33;100587.94;;;15.47;74.91
39773;BME280;25451;51.960;6.250;2022-09-09T04:48:59;100585.16;;;15.47;74.78
39773;BME280;25451;51.960;6.250;2022-09-09T04:51:25;100593.50;;;15.47;74.90
39773;BME280;25451;51.960;6.250;2022-09-09T04:53:50;100590.16;;;15.50;74.79
39773;BME280;25451;51.960;6.250;2022-09-09T04:56:17;100591.53;;;15.52;74.92
39773;BME280;25451;51.960;6.250;2022-09-09T04:58:43;100596.25;;;15.52;74.97
39773;BME280;25451;51.960;6.250;2022-09-09T05:01:19;100586.25;;;15.51;75.01
39773;BME280;25451;51.960;6.250;2022-09-09T05:03:46;100594.31;;;15.52;74.91
39773;BME280;25451;51.960;6.250;2022-09-09T05:06:15;100585.13;;;15.52;74.97
39773;BME280;25451;51.960;6.250;2022-09-09T05:08:42;100583.47;;;15.51;74.99
39773;BME280;25451;51.960;6.250;2022-09-09T05:13:49;100584.59;;;15.55;74.95
39773;BME280;25451;51.960;6.250;2022-09-09T05:16:15;100577.88;;;15.56;75.07
39773;BME280;25451;51.960;6.250;2022-09-09T05:18:42;100589.00;;;15.61;75.03
39773;BME280;25451;51.960;6.250;2022-09-09T05:21:12;100584.84;;;15.63;75.05
39773;BME280;25451;51.960;6.250;2022-09-09T05:23:39;100574.25;;;15.65;75.13
39773;BME280;25451;51.960;6.250;2022-09-09T05:26:06;100577.84;;;15.66;75.05
39773;BME280;25451;51.960;6.250;2022-09-09T05:28:34;100577.28;;;15.69;75.10
39773;BME280;25451;51.960;6.250;2022-09-09T05:31:01;100577.59;;;15.67;75.11
39773;BME280;25451;51.960;6.250;2022-09-09T05:33:31;100582.31;;;15.67;75.13
39773;BME280;25451;51.960;6.250;2022-09-09T05:36:00;100583.66;;;15.74;75.01
39773;BME280;25451;51.960;6.250;2022-09-09T05:38:27;100585.34;;;15.75;75.22
39773;BME280;25451;51.960;6.250;2022-09-09T05:40:53;100575.59;;;15.73;75.09
39773;BME280;25451;51.960;6.250;2022-09-09T05:43:21;100579.47;;;15.77;75.31
39773;BME280;25451;51.960;6.250;2022-09-09T05:45:47;100578.34;;;15.78;75.35
39773;BME280;25451;51.960;6.250;2022-09-09T05:48:14;100575.03;;;15.76;75.27
39773;BME280;25451;51.960;6.250;2022-09-09T05:50:41;100584.19;;;15.82;75.46
39773;BME280;25451;51.960;6.250;2022-09-09T05:53:08;100577.50;;;15.83;75.34
39773;BME280;25451;51.960;6.250;2022-09-09T05:55:33;100582.22;;;15.82;75.34
39773;BME280;25451;51.960;6.250;2022-09-09T05:57:58;100583.63;;;15.85;75.45
39773;BME280;25451;51.960;6.250;2022-09-09T06:00:25;100574.72;;;15.83;75.33
39773;BME280;25451;51.960;6.250;2022-09-09T06:02:51;100582.22;;;15.87;75.32
39773;BME280;25451;51.960;6.250;2022-09-09T06:05:18;100581.38;;;15.92;75.39
39773;BME280;25451;51.960;6.250;2022-09-09T06:07:43;100593.91;;;15.94;75.50
39773;BME280;25451;51.960;6.250;2022-09-09T06:10:10;100596.09;;;15.97;75.42
39773;BME280;25451;51.960;6.250;2022-09-09T06:12:35;100598.88;;;15.97;75.63
39773;BME280;25451;51.960;6.250;2022-09-09T06:15:01;100592.75;;;16.00;75.42
39773;BME280;25451;51.960;6.250;2022-09-09T06:17:26;100589.13;;;16.00;75.42
39773;BME280;25451;51.960;6.250;2022-09-09T06:19:51;100590.50;;;16.02;75.57
39773;BME280;25451;51.960;6.250;2022-09-09T06:22:17;100587.69;;;16.07;75.51
39773;BME280;25451;51.960;6.250;2022-09-09T06:24:43;100594.09;;;16.08;75.47
39773;BME280;25451;51.960;6.250;2022-09-09T06:27:09;100588.78;;;16.11;75.60
39773;BME280;25451;51.960;6.250;2022-09-09T06:29:35;100592.41;;;16.12;75.54
39773;BME280;25451;51.960;6.250;2022-09-09T06:32:02;100594.59;;;16.15;75.64
39773;BME280;25451;51.960;6.250;2022-09-09T06:34:28;100594.88;;;16.18;75.70
39773;BME280;25451;51.960;6.250;2022-09-09T06:36:53;100587.06;;;16.20;75.50
39773;BME280;25451;51.960;6.250;2022-09-09T06:39:19;100594.28;;;16.26;75.68
39773;BME280;25451;51.960;6.250;2022-09-09T06:41:44;100593.69;;;16.29;75.58
39773;BME280;25451;51.960;6.250;2022-09-09T06:44:10;100598.94;;;16.36;75.68
39773;BME280;25451;51.960;6.250;2022-09-09T06:46:37;100604.50;;;16.41;75.56
39773;BME280;25451;51.960;6.250;2022-09-09T06:49:03;100599.41;;;16.48;75.54
39773;BME280;25451;51.960;6.250;2022-09-09T06:51:30;100603.59;;;16.50;75.61
39773;BME280;25451;51.960;6.250;2022-09-09T06:53:58;100589.91;;;16.54;75.64
39773;BME280;25451;51.960;6.250;2022-09-09T06:56:34;100595.47;;;16.59;75.65
39773;BME280;25451;51.960;6.250;2022-09-09T06:59:02;100592.88;;;16.68;75.55
39773;BME280;25451;51.960;6.250;2022-09-09T07:01:31;100597.28;;;16.74;75.63
39773;BME280;25451;51.960;6.250;2022-09-09T07:03:58;100596.72;;;16.77;75.70
39773;BME280;25451;51.960;6.250;2022-09-09T07:06:31;100609.50;;;16.83;75.75
39773;BME280;25451;51.960;6.250;2022-09-09T07:09:08;100612.25;;;16.88;75.63
39773;BME280;25451;51.960;6.250;2022-09-09T07:11:38;100590.22;;;16.86;75.68
39773;BME280;25451;51.960;6.250;2022-09-09T07:14:04;100606.31;;;16.94;75.88
39773;BME280;25451;51.960;6.250;2022-09-09T07:16:29;100605.69;;;17.02;75.71
39773;BME280;25451;51.960;6.250;2022-09-09T07:18:57;100605.34;;;17.09;75.58
39773;BME280;25451;51.960;6.250;2022-09-09T07:21:26;100604.47;;;17.13;75.83
39773;BME280;25451;51.960;6.250;2022-09-09T07:23:52;100607.25;;;17.18;75.67
39773;BME280;25451;51.960;6.250;2022-09-09T07:26:21;100599.09;;;17.22;75.84
39773;BME280;25451;51.960;6.250;2022-09-09T07:28:50;100602.13;;;17.25;75.94
39773;BME280;25451;51.960;6.250;2022-09-09T07:31:21;100607.38;;;17.32;75.75
39773;BME280;25451;51.960;6.250;2022-09-09T07:33:47;100611.22;;;17.36;75.76
39773;BME280;25451;51.960;6.250;2022-09-09T07:36:14;100597.22;;;17.41;75.83
39773;BME280;25451;51.960;6.250;2022-09-09T07:38:42;100602.00;;;17.40;75.77
39773;BME280;25451;51.960;6.250;2022-09-09T07:41:10;100605.00;;;17.44;75.78
39773;BME280;25451;51.960;6.250;2022-09-09T07:43:43;100621.97;;;17.53;75.87
39773;BME280;25451;51.960;6.250;2022-09-09T07:46:10;100618.56;;;17.56;75.71
39773;BME280;25451;51.960;6.250;2022-09-09T07:48:37;100610.75;;;17.58;75.83
39773;BME280;25451;51.960;6.250;2022-09-09T07:51:05;100607.28;;;17.66;75.79
39773;BME280;25451;51.960;6.250;2022-09-09T07:53:31;100623.78;;;17.67;75.73
39773;BME280;25451;51.960;6.250;2022-09-09T07:56:02;100617.81;;;17.74;75.96
39773;BME280;25451;51.960;6.250;2022-09-09T07:58:28;100618.66;;;17.74;75.76
39773;BME280;25451;51.960;6.250;2022-09-09T08:00:53;100612.75;;;17.76;75.72
39773;BME280;25451;51.960;6.250;2022-09-09T08:03:19;100625.84;;;17.80;75.53
39773;BME280;25451;51.960;6.250;2022-09-09T08:05:47;100614.63;;;17.85;75.62
39773;BME280;25451;51.960;6.250;2022-09-09T08:08:12;100619.81;;;17.92;75.49
39773;BME280;25451;51.960;6.250;2022-09-09T08:10:37;100614.84;;;17.89;75.38
39773;BME280;25451;51.960;6.250;2022-09-09T08:13:03;100626.72;;;17.99;75.64
39773;BME280;25451;51.960;6.250;2022-09-09T08:15:28;100626.72;;;17.99;75.74
39773;BME280;25451;51.960;6.250;2022-09-09T08:17:56;100632.53;;;18.03;75.38
39773;BME280;25451;51.960;6.250;2022-09-09T08:20:21;100634.13;;;18.09;75.48
39773;BME280;25451;51.960;6.250;2022-09-09T08:22:48;100623.84;;;18.04;75.46
39773;BME280;25451;51.960;6.250;2022-09-09T08:25:15;100631.56;;;18.12;75.36
39773;BME280;25451;51.960;6.250;2022-09-09T08:27:40;100632.88;;;18.20;75.47
39773;BME280;25451;51.960;6.250;2022-09-09T08:30:06;100634.75;;;18.24;75.25
39773;BME280;25451;51.960;6.250;2022-09-09T08:32:31;100638.56;;;18.34;75.37
39773;BME280;25451;51.960;6.250;2022-09-09T08:34:57;100632.84;;;18.44;75.25
39773;BME280;25451;51.960;6.250;2022-09-09T08:37:22;100647.53;;;18.54;75.09
39773;BME280;25451;51.960;6.250;2022-09-09T08:39:47;100637.09;;;18.60;75.10
39773;BME280;25451;51.960;6.250;2022-09-09T08:45:25;100639.34;;;18.76;74.76
39773;BME280;25451;51.960;6.250;2022-09-09T08:48:19;100627.84;;;18.78;74.63
39773;BME280;25451;51.960;6.250;2022-09-09T08:50:50;100635.25;;;18.87;74.47
39773;BME280;25451;51.960;6.250;2022-09-09T08:53:19;100630.50;;;18.88;74.41
39773;BME280;25451;51.960;6.250;2022-09-09T08:55:53;100639.88;;;18.97;74.25
39773;BME280;25451;51.960;6.250;2022-09-09T08:58:26;100627.31;;;18.94;74.17
39773;BME280;25451;51.960;6.250;2022-09-09T09:03:33;100648.09;;;19.07;74.14
39773;BME280;25451;51.960;6.250;2022-09-09T09:09:01;100646.03;;;19.13;73.92
39773;BME280;25451;51.960;6.250;2022-09-09T09:11:35;100638.78;;;19.12;73.87
39773;BME280;25451;51.960;6.250;2022-09-09T09:14:07;100640.44;;;19.13;73.89
39773;BME280;25451;51.960;6.250;2022-09-09T09:16:58;100631.19;;;19.12;73.60
39773;BME280;25451;51.960;6.250;2022-09-09T09:19:24;100642.53;;;19.21;73.50
39773;BME280;25451;51.960;6.250;2022-09-09T09:22:06;100640.03;;;19.19;73.24
39773;BME280;25451;51.960;6.250;2022-09-09T09:27:25;100648.66;;;19.23;73.23
39773;BME280;25451;51.960;6.250;2022-09-09T09:29:56;100652.50;;;19.27;73.09
39773;BME280;25451;51.960;6.250;2022-09-09T09:32:24;100646.91;;;19.27;73.01
39773;BME280;25451;51.960;6.250;2022-09-09T09:34:54;100655.81;;;19.29;72.83
39773;BME280;25451;51.960;6.250;2022-09-09T09:37:32;100644.41;;;19.25;72.67
39773;BME280;25451;51.960;6.250;2022-09-09T09:40:11;100645.47;;;19.29;72.74
39773;BME280;25451;51.960;6.250;2022-09-09T09:42:37;100652.72;;;19.30;72.69
39773;BME280;25451;51.960;6.250;2022-09-09T09:48:05;100655.22;;;19.32;72.30
39773;BME280;25451;51.960;6.250;2022-09-09T09:50:32;100643.56;;;19.25;72.20
39773;BME280;25451;51.960;6.250;2022-09-09T09:53:01;100639.66;;;19.26;72.06
39773;BME280;25451;51.960;6.250;2022-09-09T09:55:28;100652.13;;;19.33;71.96
39773;BME280;25451;51.960;6.250;2022-09-09T09:58:01;100640.72;;;19.30;71.85
39773;BME280;25451;51.960;6.250;2022-09-09T10:00:27;100646.47;;;19.38;71.78
39773;BME280;25451;51.960;6.250;2022-09-09T10:02:52;100639.50;;;19.36;71.67
39773;BME280;25451;51.960;6.250;2022-09-09T10:05:19;100645.84;;;19.41;71.30
39773;BME280;25451;51.960;6.250;2022-09-09T10:07:46;100651.03;;;19.48;71.68
39773;BME280;25451;51.960;6.250;2022-09-09T10:10:26;100651.25;;;19.51;71.32
39773;BME280;25451;51.960;6.250;2022-09-09T10:13:04;100653.84;;;19.61;71.28
39773;BME280;25451;51.960;6.250;2022-09-09T10:18:35;100647.53;;;19.69;70.79
39773;BME280;25451;51.960;6.250;2022-09-09T10:33:10;100643.94;;;19.96;70.15
39773;BME280;25451;51.960;6.250;2022-09-09T10:35:51;100660.34;;;20.03;70.06
39773;BME280;25451;51.960;6.250;2022-09-09T10:38:40;100651.00;;;20.07;69.75
39773;BME280;25451;51.960;6.250;2022-09-09T10:41:18;100639.28;;;20.05;69.72
39773;BME280;25451;51.960;6.250;2022-09-09T10:55:02;100649.25;;;20.25;69.13
39773;BME280;25451;51.960;6.250;2022-09-09T10:57:37;100637.50;;;20.23;69.03
39773;BME280;25451;51.960;6.250;2022-09-09T11:00:17;100644.66;;;20.29;68.81
39773;BME280;25451;51.960;6.250;2022-09-09T11:02:43;100641.88;;;20.29;68.83
39773;BME280;25451;51.960;6.250;2022-09-09T11:05:27;100646.84;;;20.32;68.69
39773;BME280;25451;51.960;6.250;2022-09-09T11:08:26;100649.34;;;20.33;68.66
39773;BME280;25451;51.960;6.250;2022-09-09T11:13:36;100648.00;;;20.31;68.26
39773;BME280;25451;51.960;6.250;2022-09-09T11:16:24;100648.63;;;20.28;68.15
39773;BME280;25451;51.960;6.250;2022-09-09T11:18:58;100644.78;;;20.24;68.21
39773;BME280;25451;51.960;6.250;2022-09-09T11:21:32;100644.78;;;20.24;68.14
39773;BME280;25451;51.960;6.250;2022-09-09T11:24:09;100645.59;;;20.24;68.15
39773;BME280;25451;51.960;6.250;2022-09-09T11:26:44;100645.41;;;20.21;67.95
39773;BME280;25451;51.960;6.250;2022-09-09T11:29:35;100634.81;;;20.18;67.87
39773;BME280;25451;51.960;6.250;2022-09-09T11:32:22;100642.06;;;20.19;67.78
39773;BME280;25451;51.960;6.250;2022-09-09T11:40:24;100642.06;;;20.19;67.64
39773;BME280;25451;51.960;6.250;2022-09-09T11:45:28;100643.97;;;20.23;67.30
39773;BME280;25451;51.960;6.250;2022-09-09T11:47:59;100638.16;;;20.20;67.17
39773;BME280;25451;51.960;6.250;2022-09-09T11:52:50;100648.22;;;20.21;67.07
39773;BME280;25451;51.960;6.250;2022-09-09T12:00:39;100634.38;;;20.11;67.08
39773;BME280;25451;51.960;6.250;2022-09-09T12:06:14;100657.13;;;20.09;67.16
39773;BME280;25451;51.960;6.250;2022-09-09T12:08:47;100653.06;;;20.02;67.24
39773;BME280;25451;51.960;6.250;2022-09-09T12:11:24;100652.00;;;19.98;67.53
39773;BME280;25451;51.960;6.250;2022-09-09T12:13:58;100660.34;;;20.03;67.71
39773;BME280;25451;51.960;6.250;2022-09-09T12:16:34;100659.50;;;20.02;67.87
39773;BME280;25451;51.960;6.250;2022-09-09T12:21:40;100640.94;;;19.93;68.09
39773;BME280;25451;51.960;6.250;2022-09-09T12:24:11;100650.38;;;19.97;68.31
39773;BME280;25451;51.960;6.250;2022-09-09T12:26:42;100646.22;;;19.94;68.44
39773;BME280;25451;51.960;6.250;2022-09-09T12:32:16;100655.03;;;20.01;68.71
39773;BME280;25451;51.960;6.250;2022-09-09T12:34:47;100653.69;;;19.99;68.92
39773;BME280;25451;51.960;6.250;2022-09-09T12:37:29;100654.72;;;20.03;69.01
39773;BME280;25451;51.960;6.250;2022-09-09T12:39:59;100654.72;;;20.03;69.17
39773;BME280;25451;51.960;6.250;2022-09-09T12:42:26;100644.44;;;19.98;69.20
39773;BME280;25451;51.960;6.250;2022-09-09T12:44:57;100647.56;;;19.97;69.19
39773;BME280;25451;51.960;6.250;2022-09-09T12:49:52;100648.16;;;19.94;69.59
39773;BME280;25451;51.960;6.250;2022-09-09T12:52:47;100650.16;;;19.93;69.58
39773;BME280;25451;51.960;6.250;2022-09-09T12:55:20;100645.16;;;19.90;69.86
39773;BME280;25451;51.960;6.250;2022-09-09T12:57:47;100632.63;;;19.88;69.80
39773;BME280;25451;51.960;6.250;2022-09-09T13:00:23;100633.97;;;19.90;70.12
39773;BME280;25451;51.960;6.250;2022-09-09T13:02:52;100631.50;;;19.89;70.37
39773;BME280;25451;51.960;6.250;2022-09-09T13:05:23;100637.28;;;19.92;70.35
39773;BME280;25451;51.960;6.250;2022-09-09T13:07:50;100624.72;;;19.90;70.55
39773;BME280;25451;51.960;6.250;2022-09-09T13:10:26;100625.75;;;19.94;70.57
39773;BME280;25451;51.960;6.250;2022-09-09T13:12:54;100632.41;;;19.98;70.69
39773;BME280;25451;51.960;6.250;2022-09-09T13:15:22;100627.53;;;20.03;70.87
39773;BME280;25451;51.960;6.250;2022-09-09T13:17:53;100620.47;;;20.06;70.78
39773;BME280;25451;51.960;6.250;2022-09-09T13:20:20;100616.34;;;20.03;71.01
39773;BME280;25451;51.960;6.250;2022-09-09T13:22:47;100618.50;;;20.06;70.98
39773;BME280;25451;51.960;6.250;2022-09-09T13:25:20;100614.66;;;20.02;71.07
39773;BME280;25451;51.960;6.250;2022-09-09T13:30:37;100617.56;;;20.11;71.11
39773;BME280;25451;51.960;6.250;2022-09-09T13:35:47;100620.88;;;20.13;71.17
39773;BME280;25451;51.960;6.250;2022-09-09T13:38:14;100614.13;;;20.14;70.86
39773;BME280;25451;51.960;6.250;2022-09-09T13:40:40;100604.06;;;20.13;71.11
39773;BME280;25451;51.960;6.250;2022-09-09T13:43:21;100608.22;;;20.15;71.17
39773;BME280;25451;51.960;6.250;2022-09-09T13:49:17;100607.19;;;20.25;71.18
39773;BME280;25451;51.960;6.250;2022-09-09T13:51:47;100615.00;;;20.28;71.22
39773;BME280;25451;51.960;6.250;2022-09-09T13:54:15;100603.88;;;20.23;71.14
39773;BME280;25451;51.960;6.250;2022-09-09T13:56:42;100603.47;;;20.29;70.96
39773;BME280;25451;51.960;6.250;2022-09-09T13:59:16;100593.38;;;20.28;70.98
39773;BME280;25451;51.960;6.250;2022-09-09T14:01:44;100610.28;;;20.37;71.12
39773;BME280;25451;51.960;6.250;2022-09-09T14:04:10;100607.47;;;20.37;71.03
39773;BME280;25451;51.960;6.250;2022-09-09T14:06:36;100602.72;;;20.37;71.08
39773;BME280;25451;51.960;6.250;2022-09-09T14:09:03;100604.56;;;20.42;71.08
39773;BME280;25451;51.960;6.250;2022-09-09T14:11:29;100608.69;;;20.44;71.14
39773;BME280;25451;51.960;6.250;2022-09-09T14:13:54;100615.03;;;20.50;71.06
39773;BME280;25451;51.960;6.250;2022-09-09T14:16:21;100611.06;;;20.51;71.00
39773;BME280;25451;51.960;6.250;2022-09-09T14:18:46;100609.22;;;20.46;70.96
39773;BME280;25451;51.960;6.250;2022-09-09T14:21:12;100608.78;;;20.53;71.03
39773;BME280;25451;51.960;6.250;2022-09-09T14:23:37;100615.22;;;20.53;70.86
39773;BME280;25451;51.960;6.250;2022-09-09T14:26:04;100610.56;;;20.49;70.97
39773;BME280;25451;51.960;6.250;2022-09-09T14:28:29;100615.56;;;20.52;70.93
39773;BME280;25451;51.960;6.250;2022-09-09T14:30:54;100628.94;;;20.55;70.90
39773;BME280;25451;51.960;6.250;2022-09-09T14:33:20;100623.13;;;20.51;71.02
39773;BME280;25451;51.960;6.250;2022-09-09T14:35:46;100614.03;;;20.46;71.03
39773;BME280;25451;51.960;6.250;2022-09-09T14:38:11;100597.81;;;20.43;70.88
39773;BME280;25451;51.960;6.250;2022-09-09T14:40:37;100605.09;;;20.44;71.02
39773;BME280;25451;51.960;6.250;2022-09-09T14:43:04;100601.56;;;20.38;71.05
39773;BME280;25451;51.960;6.250;2022-09-09T14:45:31;100600.75;;;20.38;71.16
39773;BME280;25451;51.960;6.250;2022-09-09T14:47:56;100596.06;;;20.33;71.02
39773;BME280;25451;51.960;6.250;2022-09-09T14:50:23;100603.22;;;20.39;71.20
39773;BME280;25451;51.960;6.250;2022-09-09T14:52:48;100600.22;;;20.36;71.15
39773;BME280;25451;51.960;6.250;2022-09-09T14:55:15;100595.13;;;20.38;71.23
39773;BME280;25451;51.960;6.250;2022-09-09T14:57:41;100600.75;;;20.38;71.27
39773;BME280;25451;51.960;6.250;2022-09-09T15:00:09;100592.44;;;20.33;71.29
39773;BME280;25451;51.960;6.250;2022-09-09T15:02:34;100592.63;;;20.36;71.35
39773;BME280;25451;51.960;6.250;2022-09-09T15:05:00;100594.63;;;20.36;71.36